createdAt,value
2022-11-30T00:01:59.990Z,28.15
2022-11-30T00:04:26.705Z,24.63
2022-11-30T00:06:57.260Z,25.65
2022-11-30T00:09:24.678Z,23.95
2022-11-30T00:11:51.344Z,22.40
2022-11-30T00:14:17.968Z,23.55
2022-11-30T00:16:44.885Z,26.10
2022-11-30T00:19:11.590Z,25.02
2022-11-30T00:21:38.307Z,23.02
2022-11-30T00:24:06.065Z,22.27
2022-11-30T00:26:32.813Z,23.60
2022-11-30T00:28:59.483Z,25.08
2022-11-30T00:31:26.262Z,21.55
2022-11-30T00:33:52.917Z,22.88
2022-11-30T00:36:24.118Z,23.55
2022-11-30T00:38:51.857Z,22.77
2022-11-30T00:41:19.403Z,23.38
2022-11-30T00:43:46.470Z,22.75
2022-11-30T00:46:14.693Z,22.00
2022-11-30T00:48:41.514Z,21.10
2022-11-30T00:51:10.415Z,21.13
2022-11-30T00:53:38.873Z,21.90
2022-11-30T00:56:06.729Z,22.60
2022-11-30T00:58:33.547Z,21.60
2022-11-30T01:01:00.630Z,21.23
2022-11-30T01:03:27.335Z,20.73
2022-11-30T01:05:53.988Z,20.23
2022-11-30T01:08:21.981Z,19.98
2022-11-30T01:10:53.374Z,20.17
2022-11-30T01:13:21.278Z,20.88
2022-11-30T01:15:47.989Z,20.98
2022-11-30T01:18:14.643Z,20.20
2022-11-30T01:20:42.734Z,18.92
2022-11-30T01:23:10.354Z,21.63
2022-11-30T01:25:37.266Z,22.25
2022-11-30T01:28:04.044Z,22.23
2022-11-30T01:30:30.905Z,21.67
2022-11-30T01:33:02.568Z,21.50
2022-11-30T01:35:29.412Z,19.88
2022-11-30T01:37:56.156Z,23.55
2022-11-30T01:40:23.012Z,19.88
2022-11-30T01:42:49.820Z,21.80
2022-11-30T01:45:16.547Z,21.88
2022-11-30T01:47:51.602Z,21.70
2022-11-30T01:50:33.402Z,22.52
2022-11-30T01:53:01.776Z,21.08
2022-11-30T01:55:45.131Z,20.75
2022-11-30T01:58:16.591Z,21.60
2022-11-30T02:00:48.641Z,19.77
2022-11-30T02:03:24.921Z,21.88
2022-11-30T02:05:51.762Z,21.65
2022-11-30T02:08:19.783Z,22.67
2022-11-30T02:10:52.896Z,20.50
2022-11-30T02:13:58.845Z,21.33
2022-11-30T02:16:51.320Z,20.55
2022-11-30T02:19:48.517Z,21.92
2022-11-30T02:22:42.351Z,22.60
2022-11-30T02:25:37.904Z,21.70
2022-11-30T02:28:29.204Z,21.83
2022-11-30T02:30:58.880Z,21.38
2022-11-30T02:33:29.937Z,20.15
2022-11-30T02:35:58.061Z,20.92
2022-11-30T02:38:26.836Z,21.67
2022-11-30T02:40:53.654Z,22.15
2022-11-30T02:43:23.054Z,22.60
2022-11-30T02:46:14.203Z,23.33
2022-11-30T02:48:49.340Z,20.75
2022-11-30T02:51:20.057Z,21.27
2022-11-30T02:56:13.793Z,19.73
2022-11-30T02:58:40.846Z,18.92
2022-11-30T03:01:07.671Z,21.15
2022-11-30T03:03:34.495Z,21.13
2022-11-30T03:06:01.185Z,22.80
2022-11-30T03:08:29.199Z,20.00
2022-11-30T03:10:55.889Z,20.90
2022-11-30T03:13:22.531Z,21.27
2022-11-30T03:15:49.405Z,21.67
2022-11-30T03:18:16.068Z,21.77
2022-11-30T03:20:43.242Z,22.33
2022-11-30T03:23:10.566Z,20.80
2022-11-30T03:25:37.331Z,19.70
2022-11-30T03:28:04.236Z,20.80
2022-11-30T03:30:30.984Z,19.70
2022-11-30T03:32:57.920Z,17.13
2022-11-30T03:35:24.585Z,17.83
2022-11-30T03:37:51.511Z,17.02
2022-11-30T03:40:18.734Z,16.60
2022-11-30T03:42:45.387Z,17.25
2022-11-30T03:45:12.063Z,17.42
2022-11-30T03:47:38.715Z,17.90
2022-11-30T03:50:06.052Z,18.15
2022-11-30T03:52:32.746Z,17.00
2022-11-30T03:55:00.893Z,17.55
2022-11-30T03:57:27.650Z,16.35
2022-11-30T03:59:54.301Z,18.35
2022-11-30T04:02:20.930Z,16.90
2022-11-30T04:04:47.915Z,16.63
2022-11-30T04:07:14.729Z,19.02
2022-11-30T04:09:41.518Z,16.05
2022-11-30T04:12:08.337Z,18.45
2022-11-30T04:14:35.010Z,18.48
2022-11-30T04:17:01.861Z,18.25
2022-11-30T04:19:28.510Z,17.95
2022-11-30T04:21:56.434Z,18.10
2022-11-30T04:24:23.073Z,19.27
2022-11-30T04:26:49.686Z,22.30
2022-11-30T04:29:16.417Z,22.27
2022-11-30T04:31:43.079Z,22.30
2022-11-30T04:34:10.027Z,19.70
2022-11-30T04:36:36.776Z,17.70
2022-11-30T04:39:03.467Z,17.48
2022-11-30T04:41:30.124Z,17.50
2022-11-30T04:43:56.935Z,16.83
2022-11-30T04:46:24.135Z,16.50
2022-11-30T04:48:50.933Z,17.98
2022-11-30T04:51:18.658Z,19.25
2022-11-30T04:53:45.443Z,20.33
2022-11-30T04:56:13.253Z,18.70
2022-11-30T04:58:40.015Z,18.35
2022-11-30T05:01:07.421Z,18.00
2022-11-30T05:03:34.211Z,17.88
2022-11-30T05:06:01.025Z,16.33
2022-11-30T05:08:27.895Z,18.58
2022-11-30T05:10:55.342Z,19.23
2022-11-30T05:13:23.722Z,19.17
2022-11-30T05:15:50.971Z,19.20
2022-11-30T05:18:17.688Z,18.70
2022-11-30T05:20:49.435Z,18.15
2022-11-30T05:23:17.198Z,17.83
2022-11-30T05:25:44.758Z,21.52
2022-11-30T05:28:12.030Z,21.77
2022-11-30T05:30:40.138Z,27.05
2022-11-30T05:33:06.977Z,28.02
2022-11-30T05:35:33.793Z,22.67
2022-11-30T05:38:00.529Z,21.88
2022-11-30T05:40:28.730Z,21.17
2022-11-30T05:42:56.849Z,19.40
2022-11-30T05:45:23.949Z,18.35
2022-11-30T05:47:50.954Z,23.30
2022-11-30T05:50:17.727Z,22.10
2022-11-30T05:52:44.624Z,22.50
2022-11-30T05:55:11.695Z,19.83
2022-11-30T05:57:39.501Z,17.92
2022-11-30T06:00:09.310Z,16.23
2022-11-30T06:02:36.059Z,18.85
2022-11-30T06:05:02.850Z,21.27
2022-11-30T06:07:37.111Z,22.55
2022-11-30T06:10:04.733Z,21.10
2022-11-30T06:12:31.702Z,23.48
2022-11-30T06:14:58.354Z,21.90
2022-11-30T06:17:25.023Z,21.75
2022-11-30T06:19:51.668Z,18.73
2022-11-30T06:22:18.304Z,16.95
2022-11-30T06:24:45.477Z,18.33
2022-11-30T06:27:12.452Z,18.95
2022-11-30T06:29:39.130Z,18.20
2022-11-30T06:32:07.922Z,19.27
2022-11-30T06:34:34.598Z,18.35
2022-11-30T06:37:01.253Z,19.30
2022-11-30T06:39:57.714Z,21.25
2022-11-30T06:42:14.655Z,19.85
2022-11-30T06:44:41.325Z,21.67
2022-11-30T06:47:07.955Z,19.52
2022-11-30T06:49:34.583Z,17.33
2022-11-30T06:52:01.746Z,19.52
2022-11-30T06:54:28.456Z,18.27
2022-11-30T06:56:56.608Z,16.23
2022-11-30T06:59:26.058Z,19.30
2022-11-30T07:01:52.772Z,21.83
2022-11-30T07:04:19.463Z,20.90
2022-11-30T07:06:46.183Z,25.10
2022-11-30T07:09:13.661Z,22.38
2022-11-30T07:11:40.348Z,25.42
2022-11-30T07:14:07.188Z,23.42
2022-11-30T07:16:33.940Z,21.30
2022-11-30T07:19:00.655Z,19.88
2022-11-30T07:21:27.343Z,19.25
2022-11-30T07:24:12.525Z,19.67
2022-11-30T07:26:39.319Z,21.95
2022-11-30T07:29:06.053Z,19.55
2022-11-30T07:31:34.911Z,19.45
2022-11-30T07:34:07.118Z,19.63
2022-11-30T07:36:34.946Z,17.95
2022-11-30T07:39:02.253Z,17.45
2022-11-30T07:41:28.917Z,17.30
2022-11-30T07:43:55.678Z,19.00
2022-11-30T07:46:22.395Z,17.00
2022-11-30T07:48:49.191Z,18.02
2022-11-30T07:51:21.302Z,19.42
2022-11-30T07:53:49.003Z,22.23
2022-11-30T07:56:18.150Z,19.48
2022-11-30T07:58:47.493Z,16.90
2022-11-30T08:01:17.474Z,18.13
2022-11-30T08:03:44.524Z,15.10
2022-11-30T08:06:24.447Z,16.85
2022-11-30T08:08:53.546Z,15.48
2022-11-30T08:11:28.419Z,16.92
2022-11-30T08:13:55.177Z,16.95
2022-11-30T08:16:24.341Z,16.38
2022-11-30T08:18:51.286Z,19.50
2022-11-30T08:21:20.578Z,19.90
2022-11-30T08:23:53.148Z,17.02
2022-11-30T08:26:27.553Z,17.98
2022-11-30T08:28:55.254Z,20.15
2022-11-30T08:31:25.463Z,20.98
2022-11-30T08:33:56.958Z,20.85
2022-11-30T08:36:25.086Z,19.80
2022-11-30T08:38:51.779Z,20.10
2022-11-30T08:41:21.558Z,16.02
2022-11-30T08:43:50.094Z,14.80
2022-11-30T08:49:21.595Z,16.00
2022-11-30T08:54:39.464Z,17.05
2022-11-30T08:57:06.181Z,21.77
2022-11-30T08:59:32.902Z,21.58
2022-11-30T09:01:59.634Z,22.55
2022-11-30T09:04:26.334Z,18.42
2022-11-30T09:06:52.992Z,20.58
2022-11-30T09:09:19.749Z,20.17
2022-11-30T09:11:46.403Z,19.23
2022-11-30T09:14:13.049Z,19.00
2022-11-30T09:16:39.934Z,18.65
2022-11-30T09:19:06.608Z,19.65
2022-11-30T09:21:33.372Z,16.60
2022-11-30T09:24:00.104Z,13.38
2022-11-30T09:26:26.964Z,13.23
2022-11-30T09:28:54.417Z,16.73
2022-11-30T09:31:25.727Z,18.08
2022-11-30T09:33:55.126Z,15.30
2022-11-30T09:36:23.744Z,15.35
2022-11-30T09:38:50.383Z,15.10
2022-11-30T09:41:45.319Z,13.95
2022-11-30T09:44:38.864Z,14.98
2022-11-30T09:47:14.796Z,15.30
2022-11-30T09:49:44.049Z,13.90
2022-11-30T09:52:24.151Z,14.32
2022-11-30T09:54:50.825Z,15.35
2022-11-30T09:57:35.002Z,13.52
2022-11-30T10:00:12.458Z,13.02
2022-11-30T10:02:39.374Z,11.80
2022-11-30T10:05:14.824Z,12.73
2022-11-30T10:07:55.278Z,12.52
2022-11-30T10:10:39.017Z,12.48
2022-11-30T10:13:24.575Z,11.18
2022-11-30T10:16:13.087Z,11.38
2022-11-30T10:18:55.074Z,11.85
2022-11-30T10:21:50.346Z,13.50
2022-11-30T10:24:49.944Z,13.65
2022-11-30T10:27:25.494Z,15.25
2022-11-30T10:29:52.093Z,14.50
2022-11-30T10:32:31.070Z,15.77
2022-11-30T10:35:04.089Z,13.10
2022-11-30T10:37:35.197Z,13.32
2022-11-30T10:40:11.355Z,13.98
2022-11-30T10:42:46.736Z,14.25
2022-11-30T10:45:23.684Z,11.90
2022-11-30T10:48:16.366Z,15.40
2022-11-30T10:50:43.347Z,16.60
2022-11-30T10:53:11.812Z,17.13
2022-11-30T10:55:44.793Z,15.25
2022-11-30T10:58:23.245Z,15.57
2022-11-30T11:01:28.359Z,16.15
2022-11-30T11:04:08.343Z,14.88
2022-11-30T11:06:35.921Z,16.13
2022-11-30T11:09:24.324Z,16.88
2022-11-30T11:12:16.979Z,18.73
2022-11-30T11:14:43.839Z,16.75
2022-11-30T11:17:19.501Z,16.67
2022-11-30T11:19:48.438Z,20.40
2022-11-30T11:22:27.410Z,21.95
2022-11-30T11:25:09.582Z,19.42
2022-11-30T11:27:41.223Z,18.13
2022-11-30T11:30:26.106Z,17.10
2022-11-30T11:33:11.440Z,17.20
2022-11-30T11:35:42.119Z,16.67
2022-11-30T11:41:01.840Z,15.70
2022-11-30T11:43:31.218Z,16.85
2022-11-30T11:46:14.525Z,16.67
2022-11-30T11:49:05.673Z,19.77
2022-11-30T11:51:36.462Z,18.23
2022-11-30T11:54:18.241Z,18.15
2022-11-30T11:56:45.162Z,18.13
2022-11-30T11:59:46.906Z,15.23
2022-11-30T12:02:34.198Z,14.85
2022-11-30T12:05:15.567Z,28.20
2022-11-30T12:08:17.187Z,24.83
2022-11-30T12:10:52.896Z,18.92
2022-11-30T12:13:23.310Z,17.77
2022-11-30T12:16:14.555Z,17.45
2022-11-30T12:19:08.279Z,16.02
2022-11-30T12:22:12.794Z,16.25
2022-11-30T12:24:57.394Z,17.90
2022-11-30T12:27:37.948Z,16.23
2022-11-30T12:30:23.010Z,16.63
2022-11-30T12:33:10.024Z,15.73
2022-11-30T12:35:56.086Z,17.90
2022-11-30T12:38:34.665Z,17.00
2022-11-30T12:41:20.042Z,20.27
2022-11-30T12:43:59.390Z,20.70
2022-11-30T12:46:32.757Z,19.48
2022-11-30T12:49:22.431Z,19.98
2022-11-30T12:52:01.191Z,18.98
2022-11-30T12:55:00.176Z,17.27
2022-11-30T12:57:54.011Z,18.20
2022-11-30T13:00:23.085Z,16.52
2022-11-30T13:03:24.434Z,18.23
2022-11-30T13:05:57.924Z,18.48
2022-11-30T13:08:55.611Z,18.02
2022-11-30T13:11:29.155Z,16.85
2022-11-30T13:13:59.203Z,19.60
2022-11-30T13:16:26.895Z,16.83
2022-11-30T13:19:00.771Z,18.48
2022-11-30T13:21:37.575Z,21.10
2022-11-30T13:24:17.050Z,21.52
2022-11-30T13:26:58.307Z,18.48
2022-11-30T13:29:43.985Z,17.95
2022-11-30T13:32:55.442Z,17.95
2022-11-30T13:35:30.838Z,18.38
2022-11-30T13:38:40.514Z,18.98
2022-11-30T13:41:09.210Z,18.67
2022-11-30T13:43:47.821Z,17.30
2022-11-30T13:46:23.629Z,16.50
2022-11-30T13:49:18.501Z,17.42
2022-11-30T13:51:45.278Z,17.90
2022-11-30T13:54:47.467Z,17.58
2022-11-30T13:57:43.206Z,16.65
2022-11-30T14:00:31.849Z,17.25
2022-11-30T14:03:20.809Z,20.05
2022-11-30T14:05:58.614Z,19.90
2022-11-30T14:08:26.055Z,19.33
2022-11-30T14:10:55.084Z,20.65
2022-11-30T14:13:29.036Z,18.98
2022-11-30T14:16:01.302Z,21.10
2022-11-30T14:18:31.722Z,19.35
2022-11-30T14:21:02.472Z,19.23
2022-11-30T14:23:46.897Z,22.30
2022-11-30T14:26:17.168Z,20.15
2022-11-30T14:29:07.953Z,19.42
2022-11-30T14:34:11.845Z,23.20
2022-11-30T14:36:44.724Z,19.00
2022-11-30T14:39:34.693Z,19.23
2022-11-30T14:42:02.331Z,19.08
2022-11-30T14:44:39.564Z,19.10
2022-11-30T14:47:20.425Z,19.17
2022-11-30T14:49:49.218Z,19.25
2022-11-30T14:52:38.701Z,19.20
2022-11-30T14:55:37.355Z,19.90
2022-11-30T14:58:23.521Z,20.15
2022-11-30T15:00:50.554Z,21.02
2022-11-30T15:03:24.910Z,18.67
2022-11-30T15:05:57.300Z,21.38
2022-11-30T15:08:25.820Z,21.48
2022-11-30T15:11:04.843Z,21.15
2022-11-30T15:13:31.530Z,19.35
2022-11-30T15:15:58.207Z,21.25
2022-11-30T15:18:25.791Z,20.50
2022-11-30T15:20:59.934Z,22.70
2022-11-30T15:23:26.820Z,20.67
2022-11-30T15:26:00.370Z,20.40
2022-11-30T15:28:53.960Z,18.05
2022-11-30T15:31:20.902Z,18.77
2022-11-30T15:33:49.646Z,15.95
2022-11-30T15:36:31.843Z,15.57
2022-11-30T15:39:03.300Z,14.40
2022-11-30T15:41:31.133Z,14.88
2022-11-30T15:43:58.018Z,16.90
2022-11-30T15:46:46.336Z,15.73
2022-11-30T15:49:22.923Z,16.63
2022-11-30T15:52:19.051Z,15.88
2022-11-30T15:54:55.840Z,17.15
2022-11-30T15:57:25.019Z,15.95
2022-11-30T16:00:20.366Z,16.13
2022-11-30T16:02:48.148Z,15.52
2022-11-30T16:05:19.599Z,15.38
2022-11-30T16:07:54.200Z,15.93
2022-11-30T16:10:40.052Z,15.98
2022-11-30T16:13:07.166Z,15.70
2022-11-30T16:15:36.288Z,15.07
2022-11-30T16:18:18.965Z,16.23
2022-11-30T16:20:51.631Z,14.23
2022-11-30T16:23:19.331Z,14.73
2022-11-30T16:25:47.786Z,14.48
2022-11-30T16:28:16.470Z,13.95
2022-11-30T16:30:44.683Z,14.70
2022-11-30T16:33:15.821Z,14.88
2022-11-30T16:36:01.500Z,13.90
2022-11-30T16:38:28.881Z,13.60
2022-11-30T16:41:18.245Z,13.27
2022-11-30T16:43:46.331Z,15.40
2022-11-30T16:46:15.654Z,12.85
2022-11-30T16:48:42.762Z,13.35
2022-11-30T16:51:18.375Z,23.98
2022-11-30T16:53:45.914Z,20.92
2022-11-30T16:56:14.665Z,18.00
2022-11-30T16:58:42.485Z,18.20
2022-11-30T17:01:22.463Z,21.58
2022-11-30T17:03:51.607Z,17.33
2022-11-30T17:06:20.882Z,13.68
2022-11-30T17:08:48.755Z,13.85
2022-11-30T17:11:19.971Z,17.23
2022-11-30T17:13:46.741Z,14.88
2022-11-30T17:16:14.822Z,12.68
2022-11-30T17:18:41.977Z,12.90
2022-11-30T17:21:14.152Z,12.40
2022-11-30T17:23:40.898Z,13.05
2022-11-30T17:26:07.631Z,15.23
2022-11-30T17:28:34.397Z,14.75
2022-11-30T17:31:01.132Z,12.43
2022-11-30T17:33:32.486Z,11.90
2022-11-30T17:35:59.301Z,12.25
2022-11-30T17:38:27.655Z,12.10
2022-11-30T17:40:54.860Z,13.43
2022-11-30T17:43:22.407Z,15.13
2022-11-30T17:45:49.557Z,22.77
2022-11-30T17:48:16.319Z,21.17
2022-11-30T17:50:43.480Z,15.63
2022-11-30T17:53:17.825Z,16.52
2022-11-30T17:55:45.514Z,16.23
2022-11-30T17:58:12.169Z,16.35
2022-11-30T18:00:38.892Z,15.10
2022-11-30T18:03:05.637Z,15.45
2022-11-30T18:05:33.310Z,15.85
2022-11-30T18:08:00.735Z,18.02
2022-11-30T18:10:27.449Z,16.40
2022-11-30T18:12:56.978Z,17.17
2022-11-30T18:18:42.855Z,18.23
2022-11-30T18:18:47.723Z,15.25
2022-11-30T18:25:59.414Z,17.93
2022-11-30T18:29:28.678Z,17.40
2022-11-30T18:42:14.608Z,13.15
2022-11-30T18:44:41.227Z,17.85
2022-11-30T18:47:12.137Z,16.98
2022-11-30T18:49:45.186Z,16.30
2022-11-30T18:56:21.613Z,19.55
2022-11-30T18:58:48.784Z,23.20
2022-11-30T19:01:34.690Z,20.60
2022-11-30T19:05:07.810Z,18.40
2022-11-30T19:08:26.932Z,15.25
2022-11-30T19:11:56.618Z,15.60
2022-11-30T19:18:23.641Z,19.13
2022-11-30T19:21:47.973Z,18.67
2022-11-30T19:24:24.428Z,17.02
2022-11-30T20:04:47.616Z,16.02
2022-11-30T20:07:14.868Z,15.00
2022-11-30T20:09:41.582Z,16.65
2022-11-30T20:12:08.231Z,17.23
2022-11-30T20:14:36.822Z,16.33
2022-11-30T20:17:03.547Z,15.32
2022-11-30T20:19:32.054Z,14.75
2022-11-30T20:21:59.348Z,14.30
2022-11-30T20:24:28.020Z,15.30
2022-11-30T20:26:54.906Z,15.43
2022-11-30T20:29:23.163Z,17.77
2022-11-30T20:31:50.295Z,16.63
2022-11-30T20:34:17.358Z,17.13
2022-11-30T20:36:45.209Z,17.55
2022-11-30T20:39:13.912Z,19.08
2022-11-30T20:41:42.396Z,20.85
2022-11-30T20:44:14.768Z,20.65
2022-11-30T20:46:50.965Z,21.23
2022-11-30T20:49:25.017Z,21.75
2022-11-30T20:52:12.751Z,19.17
2022-11-30T20:54:44.053Z,19.10
2022-11-30T20:57:13.192Z,19.00
2022-11-30T20:59:44.380Z,19.02
2022-11-30T21:02:17.400Z,17.13
2022-11-30T21:04:53.575Z,17.60
2022-11-30T21:07:20.376Z,20.08
2022-11-30T21:09:48.383Z,18.65
2022-11-30T21:12:15.402Z,19.02
2022-11-30T21:14:42.146Z,18.77
2022-11-30T21:17:09.329Z,18.33
2022-11-30T21:19:36.059Z,17.70
2022-11-30T21:22:05.224Z,19.67
2022-11-30T21:24:35.066Z,18.83
2022-11-30T21:27:01.966Z,17.30
2022-11-30T21:29:29.124Z,17.35
2022-11-30T21:31:55.845Z,18.40
2022-11-30T21:34:22.789Z,18.80
2022-11-30T21:36:52.631Z,19.17
2022-11-30T21:39:19.887Z,18.63
2022-11-30T21:41:46.674Z,19.05
2022-11-30T21:44:18.697Z,19.02
2022-11-30T21:46:51.793Z,21.77
2022-11-30T21:49:20.904Z,23.38
2022-11-30T21:51:47.623Z,18.58
2022-11-30T21:54:14.629Z,17.10
2022-11-30T21:56:44.015Z,17.17
2022-11-30T21:59:13.224Z,16.90
2022-11-30T22:01:42.950Z,16.48
2022-11-30T22:04:11.367Z,16.70
2022-11-30T22:06:39.784Z,17.42
2022-11-30T22:09:10.676Z,18.25
2022-11-30T22:11:40.099Z,19.65
2022-11-30T22:14:10.152Z,18.90
2022-11-30T22:16:36.994Z,20.08
2022-11-30T22:19:05.569Z,19.48
2022-11-30T22:21:32.743Z,23.23
2022-11-30T22:24:02.604Z,21.73
2022-11-30T22:26:31.790Z,21.20
2022-11-30T22:29:00.800Z,22.23
2022-11-30T22:31:30.289Z,21.92
2022-11-30T22:33:57.836Z,20.40
2022-11-30T22:36:27.459Z,21.13
2022-11-30T22:38:56.785Z,26.77
2022-11-30T22:41:24.221Z,22.75
2022-11-30T22:43:51.485Z,21.80
2022-11-30T22:46:26.835Z,18.83
2022-11-30T22:48:53.848Z,18.98
2022-11-30T22:51:26.636Z,18.67
2022-11-30T22:53:55.129Z,19.15
2022-11-30T22:56:26.932Z,18.15
2022-11-30T22:58:56.355Z,20.33
2022-11-30T23:01:25.120Z,18.00
2022-11-30T23:03:53.704Z,19.20
2022-11-30T23:06:21.961Z,18.77
2022-11-30T23:08:50.145Z,19.75
2022-11-30T23:11:19.709Z,18.25
2022-11-30T23:13:46.585Z,19.08
2022-11-30T23:16:15.929Z,19.30
2022-11-30T23:18:48.493Z,17.08
2022-11-30T23:21:18.399Z,20.08
2022-11-30T23:23:45.918Z,18.52
2022-11-30T23:26:20.881Z,18.73
2022-11-30T23:28:52.984Z,18.23
2022-11-30T23:31:34.037Z,19.98
2022-11-30T23:34:10.226Z,18.65
2022-11-30T23:36:37.360Z,18.35
2022-11-30T23:39:10.270Z,20.02
2022-11-30T23:41:37.159Z,19.58
2022-11-30T23:44:04.210Z,21.58
2022-11-30T23:46:31.048Z,20.10
2022-11-30T23:48:58.052Z,20.27
2022-11-30T23:51:26.720Z,20.67
2022-11-30T23:53:53.814Z,19.02
2022-11-30T23:56:22.552Z,20.45
2022-11-30T23:58:51.327Z,21.13
